sensor_id;sensor_type;location;lat;lon;timestamp;P1;durP1;ratioP1;P2;durP2;ratioP2
31368;SDS011;18004;48.416;10.066;2023-02-23T18:31:34;4.88;;;2.65;;
31368;SDS011;18004;48.416;10.066;2023-02-23T18:33:59;4.78;;;3.00;;
31368;SDS011;18004;48.416;10.066;2023-02-23T18:36:30;8.30;;;3.00;;
31368;SDS011;18004;48.416;10.066;2023-02-23T18:39:00;3.38;;;2.72;;
31368;SDS011;18004;48.416;10.066;2023-02-23T18:41:27;4.97;;;2.60;;
31368;SDS011;18004;48.416;10.066;2023-02-23T18:47:17;11.68;;;3.60;;
31368;SDS011;18004;48.416;10.066;2023-02-23T18:49:43;10.45;;;3.45;;
31368;SDS011;18004;48.416;10.066;2023-02-23T18:52:09;5.30;;;2.72;;
31368;SDS011;18004;48.416;10.066;2023-02-23T18:54:35;5.38;;;2.72;;
31368;SDS011;18004;48.416;10.066;2023-02-23T18:57:02;4.50;;;3.08;;
31368;SDS011;18004;48.416;10.066;2023-02-23T18:59:30;4.97;;;2.80;;
31368;SDS011;18004;48.416;10.066;2023-02-23T19:01:56;9.98;;;3.35;;
31368;SDS011;18004;48.416;10.066;2023-02-23T19:04:22;7.53;;;3.50;;
31368;SDS011;18004;48.416;10.066;2023-02-23T19:06:47;7.68;;;4.30;;
31368;SDS011;18004;48.416;10.066;2023-02-23T19:09:13;12.32;;;3.88;;
31368;SDS011;18004;48.416;10.066;2023-02-23T19:11:43;6.60;;;4.00;;
31368;SDS011;18004;48.416;10.066;2023-02-23T19:14:11;6.20;;;4.25;;
31368;SDS011;18004;48.416;10.066;2023-02-23T19:16:42;8.98;;;4.70;;
31368;SDS011;18004;48.416;10.066;2023-02-23T19:19:11;7.68;;;4.07;;
31368;SDS011;18004;48.416;10.066;2023-02-23T19:21:37;8.55;;;4.05;;
31368;SDS011;18004;48.416;10.066;2023-02-23T19:24:04;10.93;;;4.63;;
31368;SDS011;18004;48.416;10.066;2023-02-23T19:26:31;9.05;;;4.35;;
31368;SDS011;18004;48.416;10.066;2023-02-23T19:28:57;7.10;;;4.38;;
31368;SDS011;18004;48.416;10.066;2023-02-23T19:31:24;8.90;;;3.75;;
31368;SDS011;18004;48.416;10.066;2023-02-23T19:33:51;6.07;;;3.20;;
31368;SDS011;18004;48.416;10.066;2023-02-23T19:36:19;10.40;;;4.68;;
31368;SDS011;18004;48.416;10.066;2023-02-23T19:38:47;6.90;;;3.25;;
31368;SDS011;18004;48.416;10.066;2023-02-23T19:41:14;6.13;;;3.47;;
31368;SDS011;18004;48.416;10.066;2023-02-23T19:43:42;5.55;;;3.78;;
31368;SDS011;18004;48.416;10.066;2023-02-23T19:46:09;6.40;;;3.95;;
31368;SDS011;18004;48.416;10.066;2023-02-23T19:48:41;9.27;;;5.45;;
31368;SDS011;18004;48.416;10.066;2023-02-23T19:51:10;12.10;;;5.60;;
31368;SDS011;18004;48.416;10.066;2023-02-23T19:53:37;6.82;;;4.38;;
31368;SDS011;18004;48.416;10.066;2023-02-23T19:56:07;5.43;;;3.58;;
31368;SDS011;18004;48.416;10.066;2023-02-23T19:58:35;7.88;;;5.40;;
31368;SDS011;18004;48.416;10.066;2023-02-23T20:01:02;9.75;;;5.45;;
31368;SDS011;18004;48.416;10.066;2023-02-23T20:03:33;13.03;;;6.13;;
31368;SDS011;18004;48.416;10.066;2023-02-23T20:06:02;13.00;;;5.05;;
31368;SDS011;18004;48.416;10.066;2023-02-23T20:08:29;8.23;;;4.78;;
31368;SDS011;18004;48.416;10.066;2023-02-23T20:10:55;8.00;;;4.82;;
31368;SDS011;18004;48.416;10.066;2023-02-23T20:13:20;10.60;;;5.10;;
31368;SDS011;18004;48.416;10.066;2023-02-23T20:15:48;6.50;;;4.20;;
31368;SDS011;18004;48.416;10.066;2023-02-23T20:18:15;10.75;;;5.65;;
31368;SDS011;18004;48.416;10.066;2023-02-23T20:20:41;13.27;;;5.65;;
31368;SDS011;18004;48.416;10.066;2023-02-23T20:23:07;14.15;;;6.60;;
31368;SDS011;18004;48.416;10.066;2023-02-23T20:25:35;10.13;;;5.53;;
31368;SDS011;18004;48.416;10.066;2023-02-23T20:28:02;8.80;;;5.03;;
31368;SDS011;18004;48.416;10.066;2023-02-23T20:30:28;7.45;;;5.05;;
31368;SDS011;18004;48.416;10.066;2023-02-23T20:32:54;7.45;;;4.68;;
31368;SDS011;18004;48.416;10.066;2023-02-23T20:35:20;9.30;;;5.65;;
31368;SDS011;18004;48.416;10.066;2023-02-23T20:37:50;9.15;;;5.18;;
31368;SDS011;18004;48.416;10.066;2023-02-23T20:40:17;9.40;;;4.78;;
31368;SDS011;18004;48.416;10.066;2023-02-23T20:42:45;8.68;;;4.95;;
31368;SDS011;18004;48.416;10.066;2023-02-23T20:45:12;9.48;;;4.68;;
31368;SDS011;18004;48.416;10.066;2023-02-23T20:47:41;10.38;;;5.65;;
31368;SDS011;18004;48.416;10.066;2023-02-23T20:50:10;13.57;;;5.43;;
31368;SDS011;18004;48.416;10.066;2023-02-23T20:52:38;12.70;;;5.22;;
31368;SDS011;18004;48.416;10.066;2023-02-23T20:55:05;9.93;;;4.55;;
31368;SDS011;18004;48.416;10.066;2023-02-23T20:57:32;4.97;;;4.07;;
31368;SDS011;18004;48.416;10.066;2023-02-23T20:59:59;9.25;;;4.50;;
31368;SDS011;18004;48.416;10.066;2023-02-23T21:02:33;7.88;;;4.38;;
31368;SDS011;18004;48.416;10.066;2023-02-23T21:04:59;6.57;;;3.75;;
31368;SDS011;18004;48.416;10.066;2023-02-23T21:07:25;11.77;;;4.35;;
31368;SDS011;18004;48.416;10.066;2023-02-23T21:09:51;6.03;;;4.00;;
31368;SDS011;18004;48.416;10.066;2023-02-23T21:12:25;9.40;;;4.80;;
31368;SDS011;18004;48.416;10.066;2023-02-23T21:14:52;8.45;;;4.50;;
31368;SDS011;18004;48.416;10.066;2023-02-23T21:17:18;9.05;;;5.00;;
31368;SDS011;18004;48.416;10.066;2023-02-23T21:19:44;9.52;;;5.32;;
31368;SDS011;18004;48.416;10.066;2023-02-23T21:22:10;10.27;;;5.82;;
31368;SDS011;18004;48.416;10.066;2023-02-23T21:24:40;12.75;;;5.15;;
31368;SDS011;18004;48.416;10.066;2023-02-23T21:27:08;9.23;;;5.35;;
31368;SDS011;18004;48.416;10.066;2023-02-23T21:29:38;12.32;;;5.75;;
31368;SDS011;18004;48.416;10.066;2023-02-23T21:32:04;10.43;;;6.00;;
31368;SDS011;18004;48.416;10.066;2023-02-23T21:34:32;8.60;;;5.32;;
31368;SDS011;18004;48.416;10.066;2023-02-23T21:36:58;10.90;;;5.50;;
31368;SDS011;18004;48.416;10.066;2023-02-23T21:39:25;11.77;;;5.53;;
31368;SDS011;18004;48.416;10.066;2023-02-23T21:41:52;11.48;;;5.60;;
31368;SDS011;18004;48.416;10.066;2023-02-23T21:44:19;8.02;;;4.68;;
31368;SDS011;18004;48.416;10.066;2023-02-23T21:46:45;7.35;;;4.88;;
31368;SDS011;18004;48.416;10.066;2023-02-23T21:49:11;12.23;;;5.82;;
31368;SDS011;18004;48.416;10.066;2023-02-23T21:51:37;8.15;;;4.53;;
31368;SDS011;18004;48.416;10.066;2023-02-23T21:54:03;9.43;;;5.80;;
31368;SDS011;18004;48.416;10.066;2023-02-23T21:56:29;10.05;;;4.93;;
31368;SDS011;18004;48.416;10.066;2023-02-23T21:58:57;6.07;;;4.70;;
31368;SDS011;18004;48.416;10.066;2023-02-23T22:01:24;9.80;;;4.82;;
31368;SDS011;18004;48.416;10.066;2023-02-23T22:03:52;10.75;;;5.38;;
31368;SDS011;18004;48.416;10.066;2023-02-23T22:06:20;11.60;;;5.57;;
31368;SDS011;18004;48.416;10.066;2023-02-23T22:08:48;7.55;;;5.47;;
31368;SDS011;18004;48.416;10.066;2023-02-23T22:11:15;7.22;;;5.47;;
31368;SDS011;18004;48.416;10.066;2023-02-23T22:13:44;8.45;;;5.15;;
31368;SDS011;18004;48.416;10.066;2023-02-23T22:16:14;8.60;;;5.00;;
31368;SDS011;18004;48.416;10.066;2023-02-23T22:18:42;9.68;;;4.97;;
31368;SDS011;18004;48.416;10.066;2023-02-23T22:21:09;9.45;;;5.20;;
31368;SDS011;18004;48.416;10.066;2023-02-23T22:23:38;5.05;;;4.00;;
31368;SDS011;18004;48.416;10.066;2023-02-23T22:26:06;10.38;;;5.18;;
31368;SDS011;18004;48.416;10.066;2023-02-23T22:28:33;11.73;;;5.45;;
31368;SDS011;18004;48.416;10.066;2023-02-23T22:31:03;8.68;;;4.80;;
31368;SDS011;18004;48.416;10.066;2023-02-23T22:33:32;8.55;;;4.28;;
31368;SDS011;18004;48.416;10.066;2023-02-23T22:36:06;6.15;;;3.83;;
31368;SDS011;18004;48.416;10.066;2023-02-23T22:38:33;9.90;;;4.37;;
31368;SDS011;18004;48.416;10.066;2023-02-23T22:40:59;7.85;;;4.60;;
31368;SDS011;18004;48.416;10.066;2023-02-23T22:43:25;7.07;;;3.95;;
31368;SDS011;18004;48.416;10.066;2023-02-23T22:45:54;6.53;;;3.90;;
31368;SDS011;18004;48.416;10.066;2023-02-23T22:48:22;7.68;;;4.60;;
31368;SDS011;18004;48.416;10.066;2023-02-23T22:50:48;7.82;;;4.18;;
31368;SDS011;18004;48.416;10.066;2023-02-23T22:53:15;8.77;;;4.60;;
31368;SDS011;18004;48.416;10.066;2023-02-23T22:55:45;8.30;;;4.10;;
31368;SDS011;18004;48.416;10.066;2023-02-23T22:58:11;5.82;;;3.67;;
31368;SDS011;18004;48.416;10.066;2023-02-23T23:00:39;6.22;;;3.78;;
31368;SDS011;18004;48.416;10.066;2023-02-23T23:03:06;6.35;;;3.92;;
31368;SDS011;18004;48.416;10.066;2023-02-23T23:05:32;5.57;;;3.58;;
31368;SDS011;18004;48.416;10.066;2023-02-23T23:07:58;7.32;;;3.63;;
31368;SDS011;18004;48.416;10.066;2023-02-23T23:10:24;8.02;;;3.97;;
31368;SDS011;18004;48.416;10.066;2023-02-23T23:12:50;5.88;;;3.83;;
31368;SDS011;18004;48.416;10.066;2023-02-23T23:15:16;7.18;;;4.35;;
31368;SDS011;18004;48.416;10.066;2023-02-23T23:17:44;5.60;;;3.85;;
31368;SDS011;18004;48.416;10.066;2023-02-23T23:20:14;11.32;;;4.32;;
31368;SDS011;18004;48.416;10.066;2023-02-23T23:22:42;10.20;;;4.20;;
31368;SDS011;18004;48.416;10.066;2023-02-23T23:25:07;6.80;;;4.10;;
31368;SDS011;18004;48.416;10.066;2023-02-23T23:27:40;9.10;;;4.28;;
31368;SDS011;18004;48.416;10.066;2023-02-23T23:30:08;11.05;;;4.90;;
31368;SDS011;18004;48.416;10.066;2023-02-23T23:32:35;9.40;;;4.82;;
31368;SDS011;18004;48.416;10.066;2023-02-23T23:35:03;9.02;;;5.18;;
31368;SDS011;18004;48.416;10.066;2023-02-23T23:40:05;6.97;;;3.92;;
31368;SDS011;18004;48.416;10.066;2023-02-23T23:42:37;8.85;;;4.85;;
31368;SDS011;18004;48.416;10.066;2023-02-23T23:45:04;6.78;;;4.95;;
31368;SDS011;18004;48.416;10.066;2023-02-23T23:47:34;7.15;;;3.67;;
31368;SDS011;18004;48.416;10.066;2023-02-23T23:49:59;8.57;;;5.13;;
31368;SDS011;18004;48.416;10.066;2023-02-23T23:52:27;9.93;;;5.22;;
31368;SDS011;18004;48.416;10.066;2023-02-23T23:54:54;11.18;;;4.78;;
31368;SDS011;18004;48.416;10.066;2023-02-23T23:57:21;10.45;;;5.43;;
31368;SDS011;18004;48.416;10.066;2023-02-23T23:59:47;10.35;;;5.57;;
